createdAt,value
2019-03-13T00:00:39.963Z,93261.84
2019-03-13T00:03:13.167Z,93262.05
2019-03-13T00:05:45.886Z,93264.59
2019-03-13T00:08:18.727Z,93257.71
2019-03-13T00:10:51.564Z,93256.42
2019-03-13T00:13:24.925Z,93256.11
2019-03-13T00:15:57.883Z,93253.22
2019-03-13T00:18:31.284Z,93243.50
2019-03-13T00:21:04.143Z,93242.24
2019-03-13T00:23:36.983Z,93232.36
2019-03-13T00:26:09.883Z,93237.36
2019-03-13T00:28:42.704Z,93223.64
2019-03-13T00:31:15.803Z,93220.33
2019-03-13T00:33:48.623Z,93212.61
2019-03-13T00:36:22.203Z,93204.80
2019-03-13T00:38:55.283Z,93204.52
2019-03-13T00:41:28.183Z,93200.59
2019-03-13T00:44:01.145Z,93192.98
2019-03-13T00:46:37.683Z,93190.72
2019-03-13T00:49:10.523Z,93183.92
2019-03-13T00:51:45.968Z,93183.86
2019-03-13T00:54:18.893Z,93186.25
2019-03-13T00:56:51.723Z,93176.59
2019-03-13T00:59:24.714Z,93168.10
2019-03-13T01:01:59.043Z,93166.68
2019-03-13T01:04:36.163Z,93161.61
2019-03-13T01:07:09.003Z,93153.30
2019-03-13T01:09:41.764Z,93150.47
2019-03-13T01:12:14.624Z,93148.05
2019-03-13T01:14:47.543Z,93144.27
2019-03-13T01:17:20.443Z,93147.63
2019-03-13T01:19:53.603Z,93143.38
2019-03-13T01:22:28.383Z,93133.28
2019-03-13T01:25:01.324Z,93125.30
2019-03-13T01:27:34.543Z,93115.17
2019-03-13T01:30:07.400Z,93108.41
2019-03-13T01:32:44.523Z,93105.66
2019-03-13T01:35:19.004Z,93107.97
2019-03-13T01:37:51.886Z,93097.86
2019-03-13T01:40:25.009Z,93090.25
2019-03-13T01:42:57.864Z,93101.59
2019-03-13T01:45:30.685Z,93099.39
2019-03-13T01:48:03.423Z,93098.25
2019-03-13T01:50:36.665Z,93083.40
2019-03-13T01:53:09.965Z,93082.66
2019-03-13T01:55:42.783Z,93088.08
2019-03-13T01:58:15.685Z,93083.48
2019-03-13T02:00:48.445Z,93083.28
2019-03-13T02:03:21.284Z,93085.95
2019-03-13T02:05:54.503Z,93084.66
2019-03-13T02:08:27.623Z,93070.25
2019-03-13T02:11:01.084Z,93066.73
2019-03-13T02:13:33.984Z,93059.69
2019-03-13T02:16:07.046Z,93058.77
2019-03-13T02:18:39.883Z,93051.40
2019-03-13T02:21:12.643Z,93052.94
2019-03-13T02:23:45.923Z,93046.23
2019-03-13T02:26:19.583Z,93046.12
2019-03-13T02:28:52.444Z,93040.52
2019-03-13T02:31:25.263Z,93039.09
2019-03-13T02:33:58.726Z,93022.88
2019-03-13T02:36:31.564Z,93022.13
2019-03-13T02:39:04.918Z,93026.54
2019-03-13T02:41:38.365Z,93013.34
2019-03-13T02:44:12.045Z,93007.55
2019-03-13T02:46:45.005Z,93008.49
2019-03-13T02:49:17.872Z,93011.22
2019-03-13T02:51:50.708Z,93010.38
2019-03-13T02:54:23.584Z,93013.16
2019-03-13T02:56:56.326Z,93010.53
2019-03-13T02:59:29.246Z,93004.64
2019-03-13T03:02:19.086Z,93001.80
2019-03-13T03:04:51.868Z,92993.48
2019-03-13T03:07:24.923Z,92986.86
2019-03-13T03:09:57.805Z,92978.22
2019-03-13T03:12:30.605Z,92990.39
2019-03-13T03:15:03.432Z,92999.58
2019-03-13T03:17:36.606Z,92999.80
2019-03-13T03:20:09.844Z,92996.25
2019-03-13T03:22:42.929Z,92982.53
2019-03-13T03:25:16.384Z,92977.48
2019-03-13T03:27:49.321Z,92984.52
2019-03-13T03:30:22.394Z,92982.55
2019-03-13T03:32:55.808Z,92971.28
2019-03-13T03:35:28.984Z,92979.88
2019-03-13T03:38:01.807Z,92970.30
2019-03-13T03:40:34.685Z,92968.39
2019-03-13T03:43:07.604Z,92966.66
2019-03-13T03:45:40.501Z,92964.98
2019-03-13T03:48:13.585Z,92966.48
2019-03-13T03:50:47.105Z,92958.53
2019-03-13T03:53:20.324Z,92957.16
2019-03-13T03:55:53.165Z,92969.95
2019-03-13T03:58:29.457Z,92975.93
2019-03-13T04:01:00.630Z,92969.11
2019-03-13T04:03:34.305Z,92967.08
2019-03-13T04:06:07.845Z,92950.63
2019-03-13T04:08:40.968Z,92947.24
2019-03-13T04:11:13.904Z,92948.17
2019-03-13T04:13:46.704Z,92948.43
2019-03-13T04:16:19.585Z,92948.03
2019-03-13T04:18:52.804Z,92932.77
2019-03-13T04:21:26.167Z,92932.55
2019-03-13T04:23:58.923Z,92929.25
2019-03-13T04:26:32.615Z,92923.53
2019-03-13T04:29:05.946Z,92919.23
2019-03-13T04:31:38.767Z,92914.82
2019-03-13T04:34:11.844Z,92925.75
2019-03-13T04:36:44.944Z,92939.48
2019-03-13T04:39:17.765Z,92952.77
2019-03-13T04:41:50.585Z,92958.64
2019-03-13T04:44:23.505Z,92959.95
2019-03-13T04:46:56.464Z,92945.98
2019-03-13T04:49:29.430Z,92925.94
2019-03-13T04:52:02.267Z,92925.33
2019-03-13T04:54:35.104Z,92928.17
2019-03-13T04:57:08.243Z,92922.59
2019-03-13T04:59:41.165Z,92916.92
2019-03-13T05:02:14.084Z,92919.36
2019-03-13T05:04:46.944Z,92918.38
2019-03-13T05:07:19.964Z,92926.28
2019-03-13T05:10:11.744Z,92929.69
2019-03-13T05:12:44.564Z,92933.68
2019-03-13T05:15:17.444Z,92934.42
2019-03-13T05:17:50.284Z,92925.39
2019-03-13T05:20:23.363Z,92914.91
2019-03-13T05:22:56.266Z,92916.42
2019-03-13T05:25:29.083Z,92924.91
2019-03-13T05:28:01.942Z,92934.66
2019-03-13T05:30:34.812Z,92933.91
2019-03-13T05:33:07.803Z,92940.91
2019-03-13T05:35:41.124Z,92945.75
2019-03-13T05:38:14.227Z,92950.73
2019-03-13T05:40:47.147Z,92940.11
2019-03-13T05:43:20.106Z,92942.11
2019-03-13T05:45:53.346Z,92944.66
2019-03-13T05:48:26.244Z,92942.50
2019-03-13T05:50:59.026Z,92943.91
2019-03-13T05:53:32.004Z,92946.88
2019-03-13T05:56:04.803Z,92954.24
2019-03-13T05:58:37.585Z,92954.36
2019-03-13T06:01:10.893Z,92955.80
2019-03-13T06:03:43.684Z,92969.47
2019-03-13T06:06:16.683Z,92983.19
2019-03-13T06:08:49.584Z,92981.55
2019-03-13T06:11:22.371Z,92989.30
2019-03-13T06:13:55.470Z,92987.27
2019-03-13T06:16:28.243Z,92989.99
2019-03-13T06:19:01.144Z,92993.09
2019-03-13T06:21:34.204Z,92996.64
2019-03-13T06:24:07.024Z,93002.83
2019-03-13T06:26:39.883Z,93003.95
2019-03-13T06:29:12.763Z,93005.42
2019-03-13T06:31:46.248Z,93012.94
2019-03-13T06:34:18.966Z,93010.30
2019-03-13T06:36:52.444Z,93023.09
2019-03-13T06:39:25.254Z,93022.09
2019-03-13T06:41:57.966Z,93022.02
2019-03-13T06:44:30.773Z,93009.17
2019-03-13T06:47:03.386Z,93011.16
2019-03-13T06:49:36.367Z,93004.80
2019-03-13T06:52:09.188Z,93002.84
2019-03-13T06:54:41.988Z,92998.30
2019-03-13T06:57:14.808Z,92987.68
2019-03-13T07:00:05.749Z,92999.19
2019-03-13T07:02:40.074Z,93015.53
2019-03-13T07:05:14.618Z,93030.91
2019-03-13T07:07:50.388Z,93028.98
2019-03-13T07:10:24.867Z,93020.98
2019-03-13T07:13:14.526Z,93022.78
2019-03-13T07:15:49.008Z,93032.19
2019-03-13T07:18:23.367Z,93028.81
2019-03-13T07:21:07.124Z,93027.55
2019-03-13T07:23:41.704Z,93025.94
2019-03-13T07:26:18.908Z,93023.12
2019-03-13T07:29:11.578Z,93026.66
2019-03-13T07:31:35.548Z,93029.66
2019-03-13T07:34:09.835Z,93024.08
2019-03-13T07:36:48.346Z,93023.02
2019-03-13T07:39:38.006Z,93025.30
2019-03-13T07:42:28.746Z,93015.33
2019-03-13T07:45:12.284Z,93023.44
2019-03-13T07:47:53.204Z,93019.37
2019-03-13T07:50:45.985Z,93020.73
2019-03-13T07:53:29.063Z,93012.05
2019-03-13T07:56:09.225Z,93014.33
2019-03-13T07:59:02.073Z,93007.14
2019-03-13T08:01:52.284Z,93017.06
2019-03-13T08:04:45.884Z,93026.31
2019-03-13T08:07:20.361Z,93045.34
2019-03-13T08:09:54.764Z,93051.25
2019-03-13T08:12:45.647Z,93055.91
2019-03-13T08:15:36.048Z,93050.77
2019-03-13T08:18:19.207Z,93051.41
2019-03-13T08:20:59.477Z,93052.08
2019-03-13T08:23:36.452Z,93044.91
2019-03-13T08:26:16.729Z,93048.63
2019-03-13T08:28:53.569Z,93054.11
2019-03-13T08:31:36.477Z,93053.07
2019-03-13T08:34:26.889Z,93060.87
2019-03-13T08:37:04.072Z,93053.09
2019-03-13T08:39:47.625Z,93057.90
2019-03-13T08:42:40.444Z,93063.16
2019-03-13T08:45:13.051Z,93066.83
2019-03-13T08:47:50.484Z,93066.20
2019-03-13T08:50:32.064Z,93071.58
2019-03-13T08:53:12.786Z,93071.91
2019-03-13T08:56:03.424Z,93077.17
2019-03-13T08:58:52.804Z,93078.36
2019-03-13T09:01:45.045Z,93078.91
2019-03-13T09:04:22.235Z,93078.44
2019-03-13T09:07:12.365Z,93084.65
2019-03-13T09:10:02.486Z,93099.73
2019-03-13T09:12:34.906Z,93106.06
2019-03-13T09:15:25.764Z,93112.00
2019-03-13T09:18:00.024Z,93106.91
2019-03-13T09:20:50.763Z,93101.61
2019-03-13T09:23:27.745Z,93111.02
2019-03-13T09:26:02.098Z,93108.45
2019-03-13T09:28:48.505Z,93111.84
2019-03-13T09:31:21.384Z,93120.63
2019-03-13T09:33:55.651Z,93115.66
2019-03-13T09:36:35.984Z,93116.14
2019-03-13T09:39:16.467Z,93121.82
2019-03-13T09:41:50.928Z,93118.52
2019-03-13T09:44:25.665Z,93131.63
2019-03-13T09:47:02.690Z,93129.34
2019-03-13T09:49:43.063Z,93134.92
2019-03-13T09:52:23.363Z,93141.91
2019-03-13T09:55:00.374Z,93151.61
2019-03-13T09:57:41.650Z,93141.58
2019-03-13T10:00:26.203Z,93136.79
2019-03-13T10:03:06.523Z,93143.41
2019-03-13T10:05:42.067Z,93146.27
2019-03-13T10:08:16.506Z,93145.42
2019-03-13T10:10:53.803Z,93145.76
2019-03-13T10:13:44.364Z,93143.47
2019-03-13T10:16:34.924Z,93143.34
2019-03-13T10:19:11.980Z,93143.11
2019-03-13T10:21:52.043Z,93141.36
2019-03-13T10:24:29.209Z,93134.33
2019-03-13T10:27:21.877Z,93141.84
2019-03-13T10:29:59.185Z,93143.70
2019-03-13T10:32:50.486Z,93143.38
2019-03-13T10:35:22.944Z,93144.34
2019-03-13T10:37:55.465Z,93141.91
2019-03-13T10:40:38.687Z,93133.81
2019-03-13T10:43:25.752Z,93136.91
2019-03-13T10:46:02.985Z,93135.94
2019-03-13T10:48:37.408Z,93137.09
2019-03-13T10:51:14.524Z,93142.09
2019-03-13T10:53:49.163Z,93147.58
2019-03-13T10:56:26.684Z,93141.86
2019-03-13T10:59:06.823Z,93137.50
2019-03-13T11:01:51.471Z,93129.34
2019-03-13T11:04:26.064Z,93128.83
2019-03-13T11:07:00.464Z,93125.45
2019-03-13T11:29:13.863Z,93131.80
2019-03-13T11:31:51.313Z,93120.77
2019-03-13T11:34:24.012Z,93117.05
2019-03-13T11:36:58.517Z,93118.34
2019-03-13T11:39:35.966Z,93111.08
2019-03-13T11:42:16.524Z,93114.78
2019-03-13T11:44:54.053Z,93121.79
2019-03-13T11:47:42.212Z,93118.64
2019-03-13T11:50:11.113Z,93116.75
2019-03-13T11:53:02.123Z,93110.42
2019-03-13T11:55:48.797Z,93107.62
2019-03-13T11:58:23.254Z,93107.09
2019-03-13T12:01:09.397Z,93110.23
2019-03-13T12:04:00.004Z,93112.66
2019-03-13T12:06:43.704Z,93112.20
2019-03-13T12:09:30.054Z,93101.64
2019-03-13T12:12:07.477Z,93107.31
2019-03-13T12:14:51.273Z,93103.51
2019-03-13T12:17:25.713Z,93104.02
2019-03-13T12:20:15.352Z,93099.10
2019-03-13T12:22:52.973Z,93095.50
2019-03-13T12:25:27.454Z,93092.53
2019-03-13T12:28:07.877Z,93090.80
2019-03-13T12:30:58.312Z,93092.79
2019-03-13T12:33:47.802Z,93089.41
2019-03-13T12:36:22.223Z,93085.92
2019-03-13T12:39:11.873Z,93083.82
2019-03-13T12:41:50.783Z,93082.23
2019-03-13T12:44:38.644Z,93082.71
2019-03-13T12:47:25.313Z,93082.30
2019-03-13T12:50:08.585Z,93081.39
2019-03-13T12:52:49.373Z,93079.25
2019-03-13T12:55:39.897Z,93081.99
2019-03-13T12:58:14.283Z,93076.42
2019-03-13T13:00:53.033Z,93078.44
2019-03-13T13:03:27.573Z,93076.02
2019-03-13T13:06:06.076Z,93077.53
2019-03-13T13:08:44.202Z,93070.53
2019-03-13T13:11:34.681Z,93083.13
2019-03-13T13:14:17.915Z,93074.43
2019-03-13T13:16:50.587Z,93063.03
2019-03-13T13:19:23.540Z,93058.15
2019-03-13T13:21:58.108Z,93052.31
2019-03-13T13:24:30.891Z,93060.80
2019-03-13T13:27:04.758Z,93062.60
2019-03-13T13:29:37.802Z,93055.67
2019-03-13T13:32:10.633Z,93054.36
2019-03-13T13:34:43.503Z,93058.91
2019-03-13T13:37:16.383Z,93057.93
2019-03-13T13:39:49.402Z,93063.92
2019-03-13T13:42:22.273Z,93057.94
2019-03-13T13:44:55.263Z,93059.20
2019-03-13T13:47:28.133Z,93051.44
2019-03-13T13:50:01.215Z,93048.64
2019-03-13T13:52:34.027Z,93040.73
2019-03-13T13:55:06.735Z,93037.67
2019-03-13T13:57:39.673Z,93040.38
2019-03-13T14:00:12.562Z,93043.15
2019-03-13T14:02:45.453Z,93044.19
2019-03-13T14:05:18.382Z,93046.05
2019-03-13T14:07:51.253Z,93045.41
2019-03-13T14:10:24.133Z,93044.38
2019-03-13T14:12:57.062Z,93045.42
2019-03-13T14:15:29.892Z,93049.45
2019-03-13T14:18:02.864Z,93047.10
2019-03-13T14:20:35.766Z,93051.41
2019-03-13T14:23:08.526Z,93054.08
2019-03-13T14:25:41.522Z,93055.57
2019-03-13T14:28:14.383Z,93052.47
2019-03-13T14:30:47.333Z,93053.22
2019-03-13T14:33:20.235Z,93047.86
2019-03-13T14:35:53.104Z,93049.61
2019-03-13T14:38:26.014Z,93054.70
2019-03-13T14:40:58.913Z,93054.50
2019-03-13T14:43:31.769Z,93050.02
2019-03-13T14:46:05.069Z,93047.89
2019-03-13T14:48:37.902Z,93046.55
2019-03-13T14:51:10.751Z,93045.41
2019-03-13T14:53:43.712Z,93038.78
2019-03-13T14:56:16.593Z,93042.44
2019-03-13T14:58:49.674Z,93048.66
2019-03-13T15:01:22.664Z,93051.33
2019-03-13T15:03:55.684Z,93052.97
2019-03-13T15:06:28.578Z,93058.47
2019-03-13T15:09:01.655Z,93054.19
2019-03-13T15:11:34.553Z,93045.96
2019-03-13T15:14:07.202Z,93047.01
2019-03-13T15:16:40.133Z,93047.88
2019-03-13T15:19:12.973Z,93052.16
2019-03-13T15:21:45.873Z,93056.50
2019-03-13T15:24:18.756Z,93047.94
2019-03-13T15:26:51.643Z,93048.78
2019-03-13T15:29:24.554Z,93049.28
2019-03-13T15:31:57.463Z,93041.28
2019-03-13T15:34:30.316Z,93045.77
2019-03-13T15:37:03.950Z,93048.34
2019-03-13T15:39:36.882Z,93045.18
2019-03-13T15:42:09.774Z,93038.52
2019-03-13T15:44:42.674Z,93039.88
2019-03-13T15:47:15.563Z,93045.31
2019-03-13T15:49:48.833Z,93044.80
2019-03-13T15:52:21.722Z,93050.92
2019-03-13T15:54:54.763Z,93045.84
2019-03-13T15:57:27.623Z,93032.02
2019-03-13T16:00:00.605Z,93051.61
2019-03-13T16:02:33.402Z,93049.11
2019-03-13T16:05:06.104Z,93049.44
2019-03-13T16:07:39.013Z,93047.16
2019-03-13T16:10:11.864Z,93041.42
2019-03-13T16:12:44.705Z,93046.40
2019-03-13T16:15:17.605Z,93044.56
2019-03-13T16:17:50.493Z,93042.80
2019-03-13T16:20:23.344Z,93046.95
2019-03-13T16:23:00.817Z,93044.93
2019-03-13T16:25:33.734Z,93047.95
2019-03-13T16:28:06.424Z,93043.27
2019-03-13T16:30:40.893Z,93040.93
2019-03-13T16:33:13.755Z,93045.34
2019-03-13T16:35:46.783Z,93048.94
2019-03-13T16:38:19.663Z,93048.70
2019-03-13T16:40:52.583Z,93045.74
2019-03-13T16:43:25.483Z,93048.19
2019-03-13T16:45:58.373Z,93049.16
2019-03-13T16:48:31.286Z,93051.13
2019-03-13T16:51:05.303Z,93052.36
2019-03-13T16:53:38.214Z,93055.81
2019-03-13T16:56:11.124Z,93060.69
2019-03-13T16:58:43.984Z,93062.78
2019-03-13T17:01:16.934Z,93063.83
2019-03-13T17:03:49.910Z,93068.70
2019-03-13T17:06:22.793Z,93072.08
2019-03-13T17:08:55.784Z,93073.10
2019-03-13T17:11:28.695Z,93077.03
2019-03-13T17:14:01.664Z,93082.83
2019-03-13T17:16:34.722Z,93079.48
2019-03-13T17:19:07.396Z,93082.23
2019-03-13T17:21:40.343Z,93081.47
2019-03-13T17:24:13.239Z,93076.83
2019-03-13T17:26:46.293Z,93071.31
2019-03-13T17:29:19.564Z,93070.69
2019-03-13T17:31:52.557Z,93086.22
2019-03-13T17:34:25.621Z,93088.39
2019-03-13T17:36:58.582Z,93090.42
2019-03-13T17:39:33.739Z,93098.83
2019-03-13T17:42:06.139Z,93091.12
2019-03-13T17:44:39.143Z,93088.31
2019-03-13T17:47:12.043Z,93087.98
2019-03-13T17:49:45.194Z,93093.49
2019-03-13T17:52:18.033Z,93090.80
2019-03-13T17:54:51.084Z,93088.27
2019-03-13T17:57:23.983Z,93090.97
2019-03-13T17:59:56.609Z,93098.41
2019-03-13T18:02:29.734Z,93095.30
2019-03-13T18:05:02.724Z,93089.14
2019-03-13T18:07:35.623Z,93092.95
2019-03-13T18:10:08.375Z,93096.75
2019-03-13T18:12:41.443Z,93101.27
2019-03-13T18:15:14.276Z,93096.93
2019-03-13T18:17:47.272Z,93104.41
2019-03-13T18:20:20.073Z,93105.16
2019-03-13T18:22:53.004Z,93108.73
2019-03-13T18:25:25.853Z,93108.26
2019-03-13T18:27:58.933Z,93110.09
2019-03-13T18:30:31.923Z,93112.66
2019-03-13T18:33:06.031Z,93111.42
2019-03-13T18:35:39.195Z,93109.11
2019-03-13T18:38:13.103Z,93106.68
2019-03-13T18:40:46.083Z,93111.06
2019-03-13T18:43:18.844Z,93111.68
2019-03-13T18:45:54.986Z,93112.27
2019-03-13T18:48:27.954Z,93110.55
2019-03-13T18:51:00.975Z,93108.41
2019-03-13T18:53:33.973Z,93108.17
2019-03-13T18:56:06.575Z,93100.83
2019-03-13T18:58:39.553Z,93102.14
2019-03-13T19:01:12.363Z,93090.83
2019-03-13T19:03:45.333Z,93090.83
2019-03-13T19:06:18.245Z,93096.67
2019-03-13T19:08:51.143Z,93094.45
2019-03-13T19:11:24.073Z,93093.23
2019-03-13T19:13:58.158Z,93087.37
2019-03-13T19:16:31.524Z,93094.66
2019-03-13T19:19:05.439Z,93090.48
2019-03-13T19:21:38.474Z,93090.69
2019-03-13T19:24:11.374Z,93090.66
2019-03-13T19:26:44.464Z,93088.81
2019-03-13T19:29:17.535Z,93091.00
2019-03-13T19:31:50.576Z,93090.92
2019-03-13T19:34:23.438Z,93091.59
2019-03-13T19:36:56.403Z,93086.98
2019-03-13T19:39:32.024Z,93088.69
2019-03-13T19:42:04.853Z,93089.75
2019-03-13T19:44:37.784Z,93079.38
2019-03-13T19:47:10.533Z,93084.05
2019-03-13T19:49:43.653Z,93084.38
2019-03-13T19:52:16.546Z,93085.72
2019-03-13T19:54:50.986Z,93082.66
2019-03-13T19:57:23.673Z,93088.96
2019-03-13T19:59:56.853Z,93083.86
2019-03-13T20:02:29.904Z,93088.90
2019-03-13T20:05:03.563Z,93092.56
2019-03-13T20:07:36.880Z,93095.75
2019-03-13T20:10:09.678Z,93089.02
2019-03-13T20:12:42.623Z,93095.73
2019-03-13T20:15:15.485Z,93095.09
2019-03-13T20:17:48.473Z,93097.23
2019-03-13T20:20:21.175Z,93098.35
2019-03-13T20:22:56.971Z,93094.25
2019-03-13T20:25:29.142Z,93098.94
2019-03-13T20:28:02.446Z,93102.05
2019-03-13T20:30:35.439Z,93092.43
2019-03-13T20:33:08.182Z,93093.81
2019-03-13T20:35:41.175Z,93095.87
2019-03-13T20:38:13.972Z,93094.03
2019-03-13T20:40:46.894Z,93087.08
2019-03-13T20:43:19.766Z,93094.14
2019-03-13T20:45:52.843Z,93082.08
2019-03-13T20:48:25.664Z,93087.16
2019-03-13T20:50:58.774Z,93091.12
2019-03-13T20:53:31.614Z,93089.89
2019-03-13T20:56:05.571Z,93083.44
2019-03-13T20:58:38.393Z,93081.89
2019-03-13T21:01:11.274Z,93080.41
2019-03-13T21:03:45.806Z,93077.70
2019-03-13T21:06:18.744Z,93075.88
2019-03-13T21:08:54.263Z,93082.59
2019-03-13T21:11:26.213Z,93074.89
2019-03-13T21:13:59.264Z,93071.32
2019-03-13T21:16:32.323Z,93071.88
2019-03-13T21:19:05.950Z,93069.27
2019-03-13T21:21:40.077Z,93080.03
2019-03-13T21:24:13.181Z,93070.20
2019-03-13T21:26:49.109Z,93076.78
2019-03-13T21:29:20.884Z,93081.77
2019-03-13T21:31:53.975Z,93075.43
2019-03-13T21:34:28.446Z,93076.69
2019-03-13T21:37:01.794Z,93073.63
2019-03-13T21:39:34.785Z,93078.56
2019-03-13T21:42:07.501Z,93068.14
2019-03-13T21:44:40.604Z,93065.53
2019-03-13T21:47:13.412Z,93066.75
2019-03-13T21:49:46.503Z,93063.48
2019-03-13T21:52:19.354Z,93063.36
2019-03-13T21:54:52.459Z,93058.95
2019-03-13T21:57:25.893Z,93057.36
2019-03-13T21:59:58.945Z,93053.19
2019-03-13T22:02:33.100Z,93060.11
2019-03-13T22:05:06.100Z,93065.34
2019-03-13T22:07:39.006Z,93067.84
2019-03-13T22:10:11.893Z,93063.81
2019-03-13T22:12:44.903Z,93064.08
2019-03-13T22:15:17.743Z,93053.27
2019-03-13T22:17:50.674Z,93050.73
2019-03-13T22:20:23.594Z,93054.34
2019-03-13T22:22:56.557Z,93047.39
2019-03-13T22:25:29.395Z,93052.58
2019-03-13T22:28:02.464Z,93046.45
2019-03-13T22:30:35.274Z,93046.22
2019-03-13T22:33:07.936Z,93048.69
2019-03-13T22:35:40.833Z,93041.67
2019-03-13T22:38:13.673Z,93043.39
2019-03-13T22:40:46.564Z,93047.75
2019-03-13T22:43:19.414Z,93047.59
2019-03-13T22:45:52.394Z,93046.31
2019-03-13T22:48:25.293Z,93048.08
2019-03-13T22:50:58.212Z,93043.42
2019-03-13T22:53:31.063Z,93041.44
2019-03-13T22:56:04.751Z,93045.09
2019-03-13T22:58:37.641Z,93046.95
2019-03-13T23:01:13.238Z,93040.37
2019-03-13T23:03:46.204Z,93036.20
2019-03-13T23:06:19.034Z,93031.91
2019-03-13T23:08:52.043Z,93036.45
2019-03-13T23:11:24.882Z,93033.87
2019-03-13T23:13:57.894Z,93030.38
2019-03-13T23:16:30.723Z,93030.84
2019-03-13T23:19:04.377Z,93033.75
2019-03-13T23:21:37.394Z,93028.78
2019-03-13T23:24:10.724Z,93028.88
2019-03-13T23:26:43.755Z,93016.98
2019-03-13T23:29:16.670Z,93025.58
2019-03-13T23:31:49.563Z,93017.81
2019-03-13T23:34:22.464Z,93007.88
2019-03-13T23:36:55.435Z,93002.67
2019-03-13T23:39:28.293Z,93010.84
2019-03-13T23:42:01.255Z,93012.48
2019-03-13T23:44:35.803Z,93011.20
2019-03-13T23:47:08.540Z,93011.32
2019-03-13T23:49:41.423Z,93009.12
2019-03-13T23:52:14.273Z,93017.81
2019-03-13T23:54:47.193Z,93014.22
2019-03-13T23:57:20.013Z,93015.11
2019-03-13T23:59:52.968Z,93006.52
